TNCA/AUA METAR and TAF weather

Enter ICAO airport designator
Station Type Date Time Source
TNCA METAR 2020/09/30 14:00 UTC NOAA

TNCA 301400Z 12018KT 9999 BKN020 32/25 Q1013 NOSIG


Station Type Date Time Source
TNCA Decoded METAR 2020/09/30 14:00 UTC NOAA

Queen Beatrix Airport, Aruba (TNCA) 12-30N 070-01W 33M
Sep 30, 2020 - 10:00 AM EDT / 2020.09.30 1400 UTC
Wind: from the ESE (120 degrees) at 21 MPH (18 KT):0
Visibility: greater than 7 mile(s):0
Sky conditions: mostly cloudy
Temperature: 89 F (32 C)
Heat index: 100.6 F (38.1 C):1
Dew Point: 77 F (25 C)
Relative Humidity: 66%
Pressure (altimeter): 29.91 in. Hg (1013 hPa)
ob: TNCA 301400Z 12018KT 9999 BKN020 32/25 Q1013 NOSIG
cycle: 14

Station Type Date Time Source
TNCA TAF 2020/09/30 12:03 UTC NOAA

TAF TNCA 301200Z 3012/0112 09022KT 9999 SCT018

Example: see airport list